Time;durP1;ratioP1;P1;durP2;ratioP2;P2;SDS_P1;SDS_P2;PMS_P1;PMS_P2;Temp;Humidity;BMP_temperature;BMP_pressure;BME280_temperature;BME280_humidity;BME280_pressure;Samples;Min_cycle;Max_cycle;Signal;HPM_P1;HPM_P2
2021/01/24 00:00:54;;;;;;;2.77;2.40;;;3.80;99.90;;;;;;5040679;28;20161;-90
2021/01/24 00:03:22;;;;;;;4.67;2.60;;;3.80;99.90;;;;;;5041755;28;20217;-89
2021/01/24 00:05:48;;;;;;;2.80;2.40;;;3.80;99.90;;;;;;5040854;28;20173;-90
2021/01/24 00:08:14;;;;;;;2.43;2.23;;;3.80;99.90;;;;;;5023298;28;20195;-90
2021/01/24 00:10:40;;;;;;;4.00;2.40;;;3.80;99.90;;;;;;5042397;28;20652;-90
2021/01/24 00:13:06;;;;;;;3.40;2.30;;;3.80;99.90;;;;;;5040375;28;20279;-90
2021/01/24 00:15:32;;;;;;;2.60;2.40;;;3.70;99.90;;;;;;5023191;28;20173;-90
2021/01/24 00:17:58;;;;;;;3.90;2.37;;;3.80;99.90;;;;;;5040768;28;20177;-87
2021/01/24 00:20:24;;;;;;;2.30;2.10;;;3.90;99.90;;;;;;5023140;28;20743;-90
2021/01/24 00:22:49;;;;;;;2.20;2.00;;;3.90;99.90;;;;;;5040943;28;20205;-90
2021/01/24 00:25:15;;;;;;;2.00;1.90;;;3.80;99.90;;;;;;5040993;28;20244;-91
2021/01/24 00:27:41;;;;;;;2.70;2.27;;;3.80;99.90;;;;;;5041809;28;20181;-89
2021/01/24 00:30:07;;;;;;;1.90;1.80;;;3.80;99.90;;;;;;5041058;28;20189;-89
2021/01/24 00:32:34;;;;;;;2.20;2.00;;;3.80;99.90;;;;;;5025241;28;20214;-90
2021/01/24 00:34:59;;;;;;;2.53;2.10;;;3.80;99.90;;;;;;5041970;28;20212;-90
2021/01/24 00:37:25;;;;;;;1.90;1.80;;;3.80;99.90;;;;;;5043503;28;20187;-90
2021/01/24 00:39:51;;;;;;;2.83;2.13;;;3.80;99.90;;;;;;5021462;28;20264;-89
2021/01/24 00:42:16;;;;;;;2.55;2.25;;;3.80;99.90;;;;;;5037011;28;20181;-88
2021/01/24 00:44:42;;;;;;;3.13;2.83;;;3.80;99.90;;;;;;5041178;28;20437;-89
2021/01/24 00:47:08;;;;;;;3.00;1.90;;;3.80;99.90;;;;;;5041126;28;20224;-88
2021/01/24 00:49:34;;;;;;;2.13;1.93;;;3.70;99.90;;;;;;5025437;28;20709;-89
2021/01/24 00:52:00;;;;;;;2.50;2.30;;;3.60;99.90;;;;;;5042516;28;20189;-88
2021/01/24 00:54:25;;;;;;;3.53;2.40;;;3.70;99.90;;;;;;5039596;28;20255;-89
2021/01/24 00:56:51;;;;;;;2.13;1.93;;;3.60;99.90;;;;;;5040551;28;20193;-90
2021/01/24 00:59:17;;;;;;;3.53;2.37;;;3.60;99.90;;;;;;5041399;28;20265;-90
2021/01/24 01:01:42;;;;;;;2.40;2.20;;;3.60;99.90;;;;;;5040619;28;20200;-90
2021/01/24 01:04:08;;;;;;;2.10;1.90;;;3.50;99.90;;;;;;5039145;28;20228;-90
2021/01/24 01:06:34;;;;;;;2.00;1.80;;;3.50;99.90;;;;;;5036584;28;20605;-90
2021/01/24 01:09:00;;;;;;;1.63;1.50;;;3.50;99.90;;;;;;5043648;28;20192;-91
2021/01/24 01:11:25;;;;;;;1.70;1.60;;;3.50;99.10;;;;;;5025348;28;20199;-89
2021/01/24 01:13:51;;;;;;;1.97;1.77;;;3.50;99.20;;;;;;5042735;28;20217;-89
2021/01/24 01:16:17;;;;;;;1.73;1.60;;;3.60;98.70;;;;;;5019664;28;20208;-90
2021/01/24 01:18:42;;;;;;;1.90;1.80;;;3.60;98.90;;;;;;5006076;28;20562;-90
2021/01/24 01:21:23;;;;;;;1.80;1.70;;;3.60;97.40;;;;;;5024000;28;20228;-90
2021/01/24 01:23:50;;;;;;;1.90;1.80;;;3.50;99.30;;;;;;5023653;28;20225;-90
2021/01/24 01:26:16;;;;;;;2.03;1.83;;;3.40;99.80;;;;;;5042477;28;20189;-90
2021/01/24 01:28:41;;;;;;;1.77;1.63;;;3.40;99.30;;;;;;5043510;28;20204;-90
2021/01/24 01:31:07;;;;;;;2.20;1.70;;;3.50;98.70;;;;;;5025716;28;20185;-90
2021/01/24 01:33:33;;;;;;;1.47;1.40;;;3.30;97.40;;;;;;5024506;28;20236;-88
2021/01/24 01:35:58;;;;;;;1.40;1.30;;;3.30;96.70;;;;;;5024662;28;20173;-90
2021/01/24 01:38:24;;;;;;;1.40;1.30;;;3.30;96.80;;;;;;5025127;28;20197;-90
2021/01/24 01:40:53;;;;;;;1.30;1.20;;;3.20;96.70;;;;;;5023617;28;20194;-89
2021/01/24 01:43:19;;;;;;;0.90;0.90;;;3.10;96.70;;;;;;5023348;28;20224;-90
2021/01/24 01:45:45;;;;;;;0.70;0.70;;;3.10;97.50;;;;;;5021904;28;20182;-90
2021/01/24 01:48:11;;;;;;;1.27;1.23;;;3.00;96.80;;;;;;5023190;28;20188;-88
2021/01/24 01:50:37;;;;;;;1.07;1.00;;;3.00;97.70;;;;;;5021689;28;20205;-88
2021/01/24 01:53:14;;;;;;;0.90;0.90;;;2.90;97.80;;;;;;5009405;28;20189;-88
2021/01/24 01:55:40;;;;;;;0.80;0.80;;;2.90;97.70;;;;;;5063020;28;20621;-88
2021/01/24 01:58:06;;;;;;;1.00;1.00;;;2.80;98.30;;;;;;5042408;28;20243;-89
2021/01/24 02:00:32;;;;;;;1.10;1.00;;;2.80;98.10;;;;;;5025193;28;20185;-89
2021/01/24 02:03:38;;;;;;;1.20;1.13;;;2.80;97.00;;;;;;5046507;28;20219;-88
2021/01/24 02:06:13;;;;;;;0.90;0.90;;;2.80;95.40;;;;;;5042320;28;20169;-88
2021/01/24 02:09:26;;;;;;;2.40;1.20;;;2.80;97.30;;;;;;5041846;28;20173;-88
2021/01/24 02:12:16;;;;;;;1.40;1.30;;;2.80;96.10;;;;;;5008687;28;20196;-88
2021/01/24 02:14:52;;;;;;;1.50;1.07;;;2.80;96.60;;;;;;5041866;28;20235;-88
2021/01/24 02:17:18;;;;;;;1.03;1.03;;;2.80;96.10;;;;;;5041579;28;20165;-88
2021/01/24 02:20:02;;;;;;;1.70;1.60;;;2.80;97.20;;;;;;4995174;28;20205;-88
2021/01/24 02:22:32;;;;;;;1.60;1.50;;;2.90;95.90;;;;;;5040661;28;20219;-88
2021/01/24 02:25:29;;;;;;;1.97;1.87;;;2.90;95.60;;;;;;5041904;28;20557;-93
2021/01/24 02:28:28;;;;;;;1.77;1.67;;;2.80;95.60;;;;;;5041993;28;20161;-90
2021/01/24 02:30:55;;;;;;;2.10;1.90;;;2.80;95.70;;;;;;5037882;28;20650;-93
2021/01/24 02:33:23;;;;;;;1.90;1.80;;;2.80;96.50;;;;;;5042845;28;20287;-90
2021/01/24 02:35:56;;;;;;;2.07;1.80;;;2.80;95.60;;;;;;5042834;28;20272;-90
2021/01/24 02:38:24;;;;;;;1.60;1.50;;;2.80;95.10;;;;;;5024184;28;20252;-91
2021/01/24 02:40:50;;;;;;;2.13;1.93;;;2.90;96.20;;;;;;5024585;28;20180;-91
2021/01/24 02:43:17;;;;;;;2.43;2.23;;;2.80;95.70;;;;;;5024103;28;20220;-91
2021/01/24 02:45:45;;;;;;;3.27;2.87;;;2.80;95.50;;;;;;5041407;28;20185;-89
2021/01/24 02:48:13;;;;;;;2.83;2.53;;;2.70;94.50;;;;;;5041407;28;20196;-89
2021/01/24 02:50:40;;;;;;;3.53;2.87;;;2.80;94.00;;;;;;5042011;28;20200;-90
2021/01/24 02:53:07;;;;;;;4.40;4.00;;;2.80;93.80;;;;;;5021675;28;20552;-90
2021/01/24 02:55:33;;;;;;;4.53;3.90;;;2.90;91.10;;;;;;5022002;28;20699;-91
2021/01/24 02:57:59;;;;;;;3.93;3.53;;;2.90;89.70;;;;;;5021533;28;20229;-90
2021/01/24 03:00:26;;;;;;;4.67;4.00;;;2.80;88.50;;;;;;5021116;28;20187;-90
2021/01/24 03:02:53;;;;;;;6.93;4.47;;;2.80;88.30;;;;;;5022093;28;20205;-91
2021/01/24 03:05:19;;;;;;;4.47;3.60;;;2.80;87.30;;;;;;5022055;28;20204;-90
2021/01/24 03:07:46;;;;;;;6.40;4.83;;;2.80;85.50;;;;;;5021835;28;20199;-91
2021/01/24 03:10:13;;;;;;;5.50;4.90;;;2.80;85.70;;;;;;5021897;28;20181;-89
2021/01/24 03:13:02;;;;;;;4.20;3.80;;;2.90;85.10;;;;;;5021388;28;20181;-89
2021/01/24 03:15:30;;;;;;;4.43;2.90;;;2.80;83.50;;;;;;5021488;28;20261;-90
2021/01/24 03:17:57;;;;;;;4.83;3.93;;;2.80;81.10;;;;;;5021821;28;20204;-89
2021/01/24 03:20:26;;;;;;;3.53;3.23;;;2.80;81.80;;;;;;5004163;28;20195;-89
2021/01/24 03:22:53;;;;;;;4.90;4.50;;;2.80;81.10;;;;;;5021733;28;20212;-90
2021/01/24 03:25:20;;;;;;;4.67;3.97;;;2.70;82.30;;;;;;5045147;28;20207;-89
2021/01/24 03:27:47;;;;;;;4.03;3.43;;;2.70;82.10;;;;;;5050066;28;20161;-90
2021/01/24 03:30:13;;;;;;;4.63;3.20;;;2.70;80.40;;;;;;5043367;28;20187;-91
2021/01/24 03:32:39;;;;;;;3.97;3.57;;;2.70;81.10;;;;;;5061234;28;20172;-91
2021/01/24 03:35:06;;;;;;;5.37;3.80;;;2.70;80.20;;;;;;5060837;28;20258;-91
2021/01/24 03:37:32;;;;;;;3.87;3.53;;;2.70;79.10;;;;;;5059366;28;20173;-90
2021/01/24 03:39:58;;;;;;;4.53;3.30;;;2.70;80.50;;;;;;5055642;28;20176;-90
2021/01/24 03:42:23;;;;;;;4.57;3.07;;;2.60;78.30;;;;;;5057087;28;20187;-90
2021/01/24 03:44:49;;;;;;;4.27;3.30;;;2.70;77.70;;;;;;5057262;28;20544;-90
2021/01/24 03:47:15;;;;;;;5.23;3.33;;;2.70;77.80;;;;;;5057382;28;20708;-90
2021/01/24 03:49:41;;;;;;;3.73;3.20;;;2.70;78.10;;;;;;5039620;28;20211;-90
2021/01/24 03:52:07;;;;;;;4.70;3.53;;;2.70;78.10;;;;;;5056769;28;20173;-90
2021/01/24 03:54:33;;;;;;;4.40;3.40;;;2.60;79.40;;;;;;5056641;28;20211;-89
2021/01/24 03:56:59;;;;;;;4.40;3.20;;;2.60;79.30;;;;;;5043326;28;20211;-90
2021/01/24 03:59:25;;;;;;;4.17;3.73;;;2.60;78.90;;;;;;5037149;28;20648;-90
2021/01/24 04:01:50;;;;;;;5.33;3.70;;;2.60;79.80;;;;;;5037389;28;20181;-91
2021/01/24 04:04:16;;;;;;;5.13;3.43;;;2.50;79.30;;;;;;5036789;28;20292;-91
2021/01/24 04:06:42;;;;;;;3.90;3.30;;;2.50;80.80;;;;;;5037550;28;20181;-90
2021/01/24 04:09:08;;;;;;;6.13;3.73;;;2.50;79.70;;;;;;5037243;28;20181;-90
2021/01/24 04:11:33;;;;;;;9.47;3.90;;;2.40;79.20;;;;;;5048920;28;20250;-91
2021/01/24 04:13:59;;;;;;;8.40;4.03;;;2.40;79.70;;;;;;5059804;28;20375;-90
2021/01/24 04:16:24;;;;;;;6.83;4.30;;;2.30;81.50;;;;;;5059473;28;20199;-90
2021/01/24 04:18:50;;;;;;;4.60;3.30;;;2.30;81.30;;;;;;5059754;28;20606;-90
2021/01/24 04:21:16;;;;;;;4.13;3.53;;;2.40;81.00;;;;;;5060201;28;20192;-90
2021/01/24 04:23:42;;;;;;;4.10;3.00;;;2.40;80.40;;;;;;5059647;28;20299;-91
2021/01/24 04:26:08;;;;;;;4.13;3.43;;;2.40;79.70;;;;;;5041283;28;20182;-89
2021/01/24 04:28:33;;;;;;;3.33;3.03;;;2.30;82.00;;;;;;5042032;28;20769;-89
2021/01/24 04:30:59;;;;;;;5.20;3.50;;;2.40;79.20;;;;;;5041611;28;20267;-90
2021/01/24 04:33:25;;;;;;;5.17;4.67;;;2.40;79.30;;;;;;5044270;28;20200;-89
2021/01/24 04:35:50;;;;;;;3.60;3.10;;;2.30;80.00;;;;;;5044939;28;20561;-89
2021/01/24 04:38:16;;;;;;;4.27;3.10;;;2.40;79.90;;;;;;5044873;28;20192;-89
2021/01/24 04:40:42;;;;;;;3.70;3.30;;;2.30;79.50;;;;;;5051078;28;20184;-89
2021/01/24 04:43:08;;;;;;;5.40;3.67;;;2.40;79.70;;;;;;5043010;28;20201;-90
2021/01/24 04:45:34;;;;;;;4.80;3.57;;;2.30;80.20;;;;;;5042705;28;20197;-89
2021/01/24 04:48:00;;;;;;;4.50;3.60;;;2.30;79.30;;;;;;5042682;28;20180;-90
2021/01/24 04:50:26;;;;;;;4.60;3.70;;;2.30;80.10;;;;;;5043566;28;20574;-90
2021/01/24 04:52:52;;;;;;;6.73;4.00;;;2.30;79.00;;;;;;5046609;28;20224;-89
2021/01/24 04:55:19;;;;;;;5.30;3.80;;;2.30;78.90;;;;;;5047291;28;20211;-90
2021/01/24 04:57:45;;;;;;;5.43;3.57;;;2.30;78.90;;;;;;5044227;28;20181;-89
2021/01/24 05:00:12;;;;;;;4.10;3.27;;;2.30;76.50;;;;;;5024706;28;20264;-89
2021/01/24 05:02:37;;;;;;;5.03;3.20;;;2.30;75.60;;;;;;5024609;28;20754;-89
2021/01/24 05:05:04;;;;;;;3.87;3.30;;;2.30;76.00;;;;;;5024488;28;20288;-89
2021/01/24 05:07:30;;;;;;;3.63;3.00;;;2.30;75.60;;;;;;5042351;28;20169;-88
2021/01/24 05:09:57;;;;;;;5.17;2.93;;;2.40;73.70;;;;;;5042211;28;20173;-88
2021/01/24 05:12:24;;;;;;;5.20;3.10;;;2.40;72.40;;;;;;5042193;28;20213;-90
2021/01/24 05:14:50;;;;;;;4.73;3.40;;;2.30;72.60;;;;;;5007970;28;20248;-89
2021/01/24 05:17:16;;;;;;;3.67;3.30;;;2.30;72.70;;;;;;5042572;28;20185;-88
2021/01/24 05:19:43;;;;;;;4.43;3.30;;;2.40;72.80;;;;;;5024198;28;20533;-89
2021/01/24 05:22:09;;;;;;;3.97;3.50;;;2.30;72.60;;;;;;5042238;28;20580;-89
2021/01/24 05:24:35;;;;;;;5.30;4.07;;;2.30;73.60;;;;;;5042129;28;20216;-88
2021/01/24 05:27:09;;;;;;;3.77;3.20;;;2.30;73.20;;;;;;5041517;28;20173;-89
2021/01/24 05:29:37;;;;;;;7.17;4.30;;;2.30;73.70;;;;;;5024216;28;20169;-87
2021/01/24 05:32:04;;;;;;;5.90;4.23;;;2.20;75.70;;;;;;5041858;28;20181;-87
2021/01/24 05:34:30;;;;;;;6.20;5.23;;;2.10;76.70;;;;;;5041747;28;20201;-89
2021/01/24 05:36:58;;;;;;;5.43;4.17;;;2.10;77.80;;;;;;5041685;28;20181;-87
2021/01/24 05:39:24;;;;;;;5.77;4.40;;;2.00;78.40;;;;;;5024306;28;20181;-88
2021/01/24 05:41:52;;;;;;;5.43;4.00;;;2.10;79.20;;;;;;5041742;28;20668;-88
2021/01/24 05:44:20;;;;;;;8.17;4.87;;;2.10;79.30;;;;;;5041036;28;20220;-88
2021/01/24 05:46:46;;;;;;;6.00;5.00;;;2.00;78.90;;;;;;5041479;28;20268;-88
2021/01/24 05:49:14;;;;;;;6.97;5.10;;;2.00;79.70;;;;;;5041669;28;20177;-88
2021/01/24 05:51:40;;;;;;;7.87;4.97;;;2.00;79.40;;;;;;5041686;28;20189;-88
2021/01/24 05:54:06;;;;;;;5.37;3.90;;;2.00;79.50;;;;;;5024206;28;20208;-87
2021/01/24 05:56:31;;;;;;;7.47;5.03;;;1.90;79.40;;;;;;5041609;28;20189;-89
2021/01/24 05:59:02;;;;;;;6.40;4.40;;;2.00;78.60;;;;;;5041580;28;20187;-88
2021/01/24 06:01:28;;;;;;;6.20;4.97;;;2.10;77.60;;;;;;5041161;28;20185;-88
2021/01/24 06:03:55;;;;;;;6.70;4.33;;;2.10;77.20;;;;;;5041193;28;20223;-88
2021/01/24 06:06:21;;;;;;;4.50;4.00;;;2.00;77.10;;;;;;5041132;28;20169;-90
2021/01/24 06:08:47;;;;;;;7.00;4.23;;;2.00;77.10;;;;;;5041586;28;20184;-89
2021/01/24 06:11:16;;;;;;;5.47;3.80;;;2.10;76.90;;;;;;5041641;28;20192;-89
2021/01/24 06:13:45;;;;;;;8.47;4.10;;;2.10;76.90;;;;;;5050810;28;20220;-89
2021/01/24 06:16:20;;;;;;;4.87;3.77;;;2.00;77.90;;;;;;5065605;28;20207;-89
2021/01/24 06:18:55;;;;;;;6.23;3.73;;;2.10;75.10;;;;;;5064235;28;20554;-90
2021/01/24 06:21:25;;;;;;;5.73;4.27;;;2.10;75.10;;;;;;5062124;28;20163;-90
2021/01/24 06:24:00;;;;;;;4.90;3.63;;;2.10;74.60;;;;;;5045346;28;20215;-90
2021/01/24 06:26:28;;;;;;;7.00;4.13;;;2.10;75.40;;;;;;5058616;28;20199;-89
2021/01/24 06:29:01;;;;;;;4.27;3.77;;;2.00;74.70;;;;;;5042169;28;20177;-90
2021/01/24 06:31:27;;;;;;;6.43;3.87;;;2.10;74.40;;;;;;5041640;28;20196;-89
2021/01/24 06:33:53;;;;;;;7.23;3.30;;;2.10;75.50;;;;;;5041936;28;20208;-89
2021/01/24 06:36:20;;;;;;;6.67;5.00;;;2.20;74.10;;;;;;5041988;28;20199;-90
2021/01/24 06:38:55;;;;;;;7.60;4.23;;;2.10;74.30;;;;;;5041715;28;20265;-89
2021/01/24 06:41:47;;;;;;;5.20;3.60;;;2.20;76.00;;;;;;5041431;28;20177;-89
2021/01/24 06:44:41;;;;;;;4.63;3.60;;;2.10;74.70;;;;;;5059271;28;20214;-90
2021/01/24 06:47:38;;;;;;;3.93;3.30;;;2.20;74.10;;;;;;5061962;28;20173;-89
2021/01/24 06:50:05;;;;;;;5.37;3.90;;;2.20;74.70;;;;;;5036310;28;20206;-90
2021/01/24 06:52:30;;;;;;;4.27;3.83;;;2.10;74.80;;;;;;5062080;28;20184;-89
2021/01/24 06:54:56;;;;;;;4.83;3.50;;;2.10;75.10;;;;;;5061171;28;20211;-90
2021/01/24 06:57:32;;;;;;;5.77;3.60;;;2.00;75.80;;;;;;5047086;28;20520;-89
2021/01/24 07:00:18;;;;;;;4.10;3.10;;;2.10;74.40;;;;;;5042302;28;20240;-90
2021/01/24 07:02:44;;;;;;;5.67;4.00;;;2.10;75.30;;;;;;5042286;28;20733;-89
2021/01/24 07:05:12;;;;;;;4.20;3.73;;;2.00;75.90;;;;;;5024615;28;20288;-89
2021/01/24 07:07:40;;;;;;;4.80;4.10;;;2.00;75.80;;;;;;5042498;28;20705;-90
2021/01/24 07:10:27;;;;;;;4.13;3.03;;;2.00;76.60;;;;;;5041369;28;20173;-90
2021/01/24 07:12:53;;;;;;;5.37;4.00;;;2.00;76.00;;;;;;5041283;28;20247;-93
2021/01/24 07:15:20;;;;;;;6.30;3.50;;;2.00;77.30;;;;;;5041870;28;20703;-88
2021/01/24 07:18:00;;;;;;;5.87;3.60;;;2.00;77.50;;;;;;5041857;28;20216;-89
2021/01/24 07:20:26;;;;;;;5.17;4.03;;;1.90;78.30;;;;;;5041923;28;20187;-89
2021/01/24 07:22:54;;;;;;;6.20;4.60;;;1.90;78.80;;;;;;5041550;28;20212;-89
2021/01/24 07:25:20;;;;;;;6.33;3.40;;;1.90;78.70;;;;;;5041578;28;20192;-88
2021/01/24 07:27:52;;;;;;;6.13;4.13;;;2.00;77.60;;;;;;5042377;28;20246;-88
2021/01/24 07:30:24;;;;;;;4.43;3.60;;;2.10;78.20;;;;;;5042479;28;20177;-88
2021/01/24 07:32:50;;;;;;;4.83;3.90;;;2.10;78.10;;;;;;5041409;28;20544;-89
2021/01/24 07:35:15;;;;;;;5.83;3.53;;;2.00;78.50;;;;;;5041401;28;20219;-88
2021/01/24 07:37:43;;;;;;;5.43;3.60;;;2.10;78.60;;;;;;5043372;28;20183;-88
2021/01/24 07:40:09;;;;;;;6.00;3.70;;;2.10;78.10;;;;;;5026171;28;20185;-89
2021/01/24 07:42:35;;;;;;;6.57;3.70;;;2.20;78.30;;;;;;5047448;28;20184;-89
2021/01/24 07:45:01;;;;;;;5.53;3.63;;;2.20;78.70;;;;;;5056126;28;20231;-89
2021/01/24 07:47:28;;;;;;;5.30;3.40;;;2.30;78.10;;;;;;5016932;28;20247;-89
2021/01/24 07:49:54;;;;;;;6.47;4.60;;;2.30;77.50;;;;;;5041471;28;20552;-88
2021/01/24 07:52:20;;;;;;;4.83;3.63;;;2.30;78.40;;;;;;5041629;28;20252;-89
2021/01/24 07:54:46;;;;;;;4.23;3.73;;;2.30;77.90;;;;;;5024054;28;20204;-89
2021/01/24 07:57:12;;;;;;;6.77;3.87;;;2.40;77.80;;;;;;5045886;28;20188;-89
2021/01/24 07:59:37;;;;;;;4.93;3.77;;;2.30;78.30;;;;;;5044553;28;20199;-89
2021/01/24 08:02:03;;;;;;;4.17;3.40;;;2.30;78.80;;;;;;5042148;28;20655;-88
2021/01/24 08:04:29;;;;;;;6.70;4.20;;;2.40;78.40;;;;;;5042244;28;20216;-88
2021/01/24 08:06:55;;;;;;;3.73;2.77;;;2.20;78.40;;;;;;5041956;28;20181;-88
2021/01/24 08:09:22;;;;;;;5.13;3.20;;;2.30;77.60;;;;;;5045530;28;20173;-89
2021/01/24 08:11:47;;;;;;;3.87;2.83;;;2.30;78.10;;;;;;5045625;28;20181;-89
2021/01/24 08:14:14;;;;;;;4.70;3.67;;;2.40;77.70;;;;;;5007908;28;20255;-89
2021/01/24 08:16:42;;;;;;;6.63;3.80;;;2.30;77.90;;;;;;5032419;28;20177;-89
2021/01/24 08:19:13;;;;;;;5.77;3.93;;;2.40;78.10;;;;;;5044437;28;20663;-88
2021/01/24 08:21:39;;;;;;;3.97;3.53;;;2.40;78.90;;;;;;5046852;28;20235;-87
2021/01/24 08:24:09;;;;;;;4.07;3.50;;;2.40;78.00;;;;;;5045514;28;20208;-89
2021/01/24 08:26:36;;;;;;;6.00;3.70;;;2.40;78.60;;;;;;5045229;28;20203;-89
2021/01/24 08:29:02;;;;;;;6.03;3.50;;;2.30;79.10;;;;;;5045139;28;20180;-88
2021/01/24 08:31:29;;;;;;;5.13;3.80;;;2.40;80.10;;;;;;5045315;28;20180;-88
2021/01/24 08:33:55;;;;;;;4.47;3.93;;;2.40;78.90;;;;;;5045050;28;20200;-87
2021/01/24 08:36:26;;;;;;;6.00;4.17;;;2.40;78.10;;;;;;5044323;28;20177;-87
2021/01/24 08:38:59;;;;;;;5.50;3.63;;;2.50;78.00;;;;;;5048465;28;20176;-86
2021/01/24 08:41:36;;;;;;;6.03;3.83;;;2.50;78.90;;;;;;5064421;28;20160;-87
2021/01/24 08:44:06;;;;;;;5.00;3.80;;;2.50;78.70;;;;;;5064204;28;20216;-87
2021/01/24 08:46:37;;;;;;;3.43;3.13;;;2.40;78.10;;;;;;5064312;28;20184;-86
2021/01/24 08:49:04;;;;;;;4.60;3.90;;;2.50;78.70;;;;;;5058214;28;20187;-88
2021/01/24 08:51:44;;;;;;;4.53;3.70;;;2.50;79.70;;;;;;5064209;28;20512;-89
2021/01/24 08:54:26;;;;;;;7.70;4.37;;;2.40;79.20;;;;;;5045900;28;20210;-87
2021/01/24 08:57:05;;;;;;;4.73;3.87;;;2.40;78.80;;;;;;5053665;28;20185;-89
2021/01/24 08:59:31;;;;;;;5.00;3.33;;;2.50;78.20;;;;;;5043817;28;20181;-89
2021/01/24 09:01:57;;;;;;;5.07;3.40;;;2.50;78.70;;;;;;5041967;28;20196;-87
2021/01/24 09:04:25;;;;;;;5.17;3.80;;;2.50;78.80;;;;;;5042088;28;20268;-88
2021/01/24 09:07:07;;;;;;;4.87;3.63;;;2.60;77.70;;;;;;5043162;28;20199;-87
2021/01/24 09:09:35;;;;;;;4.87;3.70;;;2.60;77.90;;;;;;5025331;28;20956;-88
2021/01/24 09:12:01;;;;;;;4.07;3.13;;;2.60;77.80;;;;;;5041599;28;20200;-88
2021/01/24 09:14:27;;;;;;;5.90;3.63;;;2.60;77.70;;;;;;5043227;28;20240;-88
2021/01/24 09:17:13;;;;;;;4.57;3.33;;;2.60;76.50;;;;;;5046562;28;20185;-87
2021/01/24 09:19:44;;;;;;;5.30;4.03;;;2.60;77.10;;;;;;5040631;28;20833;-87
2021/01/24 09:22:12;;;;;;;3.53;3.13;;;2.60;76.80;;;;;;5035871;28;20542;-88
2021/01/24 09:24:39;;;;;;;4.53;3.50;;;2.60;77.60;;;;;;5032443;28;20579;-89
2021/01/24 09:27:06;;;;;;;6.23;3.57;;;2.60;77.10;;;;;;5007468;28;20269;-89
2021/01/24 09:29:34;;;;;;;5.07;3.50;;;2.60;76.20;;;;;;5026547;28;20644;-88
2021/01/24 09:32:00;;;;;;;3.90;3.07;;;2.60;75.60;;;;;;5029109;28;20201;-87
2021/01/24 09:34:26;;;;;;;4.33;3.77;;;2.60;75.50;;;;;;5024322;28;20214;-87
2021/01/24 09:36:51;;;;;;;5.00;3.60;;;2.60;76.90;;;;;;5032238;28;20181;-86
2021/01/24 09:39:17;;;;;;;6.00;3.37;;;2.70;75.70;;;;;;5027224;28;20553;-89
2021/01/24 09:41:43;;;;;;;3.50;3.13;;;2.60;76.40;;;;;;5034189;28;20185;-88
2021/01/24 09:44:09;;;;;;;4.67;3.10;;;2.60;75.50;;;;;;5018399;28;20268;-87
2021/01/24 09:46:34;;;;;;;4.90;3.50;;;2.60;76.10;;;;;;5033312;28;21777;-88
2021/01/24 09:49:00;;;;;;;7.10;3.27;;;2.70;74.90;;;;;;5020716;28;20181;-88
2021/01/24 09:51:26;;;;;;;4.50;3.03;;;2.70;74.30;;;;;;5040856;28;20185;-87
2021/01/24 09:53:53;;;;;;;3.97;3.00;;;2.70;74.40;;;;;;5036390;28;20201;-89
2021/01/24 09:56:20;;;;;;;3.13;2.83;;;2.70;74.50;;;;;;5039012;28;20628;-88
2021/01/24 09:58:46;;;;;;;5.43;2.90;;;2.70;74.20;;;;;;5038062;28;20200;-89
2021/01/24 10:01:12;;;;;;;3.60;2.77;;;2.70;75.00;;;;;;5040389;28;20177;-89
2021/01/24 10:03:39;;;;;;;4.60;2.90;;;2.70;73.10;;;;;;5044711;28;20278;-88
2021/01/24 10:06:05;;;;;;;3.47;2.80;;;2.70;73.90;;;;;;5038484;28;20187;-89
2021/01/24 10:08:33;;;;;;;4.57;3.17;;;2.80;72.20;;;;;;5017572;28;20180;-87
2021/01/24 10:10:59;;;;;;;4.40;3.20;;;2.70;72.70;;;;;;5039363;28;20263;-88
2021/01/24 10:13:25;;;;;;;4.60;2.93;;;2.70;74.10;;;;;;5037875;28;20219;-88
2021/01/24 10:15:51;;;;;;;3.07;2.77;;;2.80;72.90;;;;;;5042264;28;20208;-90
2021/01/24 10:18:18;;;;;;;3.77;2.70;;;2.80;71.80;;;;;;5047777;28;20188;-88
2021/01/24 10:20:44;;;;;;;5.10;3.20;;;2.80;73.40;;;;;;5026142;28;20196;-87
2021/01/24 10:23:11;;;;;;;4.70;3.13;;;2.90;72.20;;;;;;5042046;28;20215;-87
2021/01/24 10:25:36;;;;;;;3.03;2.57;;;2.90;70.60;;;;;;5025079;28;20204;-87
2021/01/24 10:28:03;;;;;;;3.10;2.57;;;2.90;70.60;;;;;;5005364;28;20267;-87
2021/01/24 10:30:29;;;;;;;3.67;2.90;;;3.00;71.30;;;;;;5025354;28;20245;-88
2021/01/24 10:32:54;;;;;;;4.27;2.77;;;3.00;72.40;;;;;;5041074;28;20189;-87
2021/01/24 10:35:20;;;;;;;4.37;2.93;;;3.00;71.00;;;;;;5036394;28;20208;-87
2021/01/24 10:37:46;;;;;;;4.53;3.00;;;3.10;70.80;;;;;;5034273;28;20177;-87
2021/01/24 10:40:12;;;;;;;5.80;2.70;;;3.10;71.20;;;;;;5037285;28;20548;-87
2021/01/24 10:42:39;;;;;;;3.93;2.93;;;3.20;69.80;;;;;;5038545;28;20218;-88
2021/01/24 10:45:09;;;;;;;2.87;2.63;;;3.20;69.80;;;;;;5038344;28;20296;-88
2021/01/24 10:47:35;;;;;;;3.07;2.73;;;3.30;70.90;;;;;;5038501;28;20185;-88
2021/01/24 10:50:02;;;;;;;3.70;2.50;;;3.20;69.90;;;;;;5021250;28;20180;-88
2021/01/24 10:52:27;;;;;;;4.53;2.70;;;3.30;70.30;;;;;;5058818;28;20184;-89
2021/01/24 10:54:53;;;;;;;3.13;2.83;;;3.30;70.80;;;;;;5046460;28;20239;-89
2021/01/24 10:57:19;;;;;;;3.03;2.73;;;3.20;69.90;;;;;;5037899;28;20193;-89
2021/01/24 10:59:44;;;;;;;3.13;2.80;;;3.20;71.30;;;;;;5024730;28;20189;-90
2021/01/24 11:02:10;;;;;;;3.83;3.37;;;3.20;69.90;;;;;;5030716;28;20608;-88
2021/01/24 11:04:36;;;;;;;3.80;2.83;;;3.20;70.10;;;;;;5032894;28;20220;-88
2021/01/24 11:07:02;;;;;;;3.10;2.80;;;3.20;68.60;;;;;;5038038;28;20220;-89
2021/01/24 11:09:28;;;;;;;5.37;3.43;;;3.20;67.10;;;;;;5036115;28;20268;-88
2021/01/24 11:11:54;;;;;;;5.27;2.20;;;3.20;66.80;;;;;;5038067;28;20181;-88
2021/01/24 11:14:19;;;;;;;3.00;2.70;;;3.20;66.40;;;;;;5038171;28;20307;-88
2021/01/24 11:16:45;;;;;;;4.97;2.80;;;3.10;66.00;;;;;;5038288;28;20250;-89
2021/01/24 11:19:11;;;;;;;4.67;2.80;;;3.10;65.60;;;;;;5038533;28;20185;-88
2021/01/24 11:21:36;;;;;;;3.80;3.50;;;3.10;66.70;;;;;;5020493;28;20192;-87
2021/01/24 11:24:02;;;;;;;3.13;2.40;;;3.10;67.10;;;;;;5028147;28;20228;-88
2021/01/24 11:26:28;;;;;;;3.20;2.30;;;3.10;66.60;;;;;;5017690;28;20186;-88
2021/01/24 11:28:53;;;;;;;3.43;2.80;;;3.10;66.90;;;;;;5037810;28;20237;-89
2021/01/24 11:31:19;;;;;;;4.10;2.73;;;3.10;68.70;;;;;;5020402;28;20193;-89
2021/01/24 11:33:45;;;;;;;4.90;2.57;;;3.10;67.80;;;;;;5032332;28;20209;-88
2021/01/24 11:36:12;;;;;;;3.73;3.37;;;3.10;67.90;;;;;;5036106;28;20185;-89
2021/01/24 11:38:38;;;;;;;4.83;3.50;;;3.10;68.80;;;;;;5017656;28;20242;-88
2021/01/24 11:41:04;;;;;;;3.23;2.93;;;3.20;68.70;;;;;;5033897;28;20189;-89
2021/01/24 11:43:30;;;;;;;3.23;2.67;;;3.20;69.30;;;;;;5030621;28;20285;-89
2021/01/24 11:45:57;;;;;;;4.30;2.90;;;3.20;69.60;;;;;;5040266;28;20666;-89
2021/01/24 11:48:23;;;;;;;4.07;2.43;;;3.20;69.40;;;;;;5034653;28;20212;-90
2021/01/24 11:50:50;;;;;;;4.50;4.10;;;3.20;69.00;;;;;;5061711;28;20611;-89
2021/01/24 11:53:17;;;;;;;3.20;2.90;;;3.10;69.10;;;;;;5063526;28;20208;-88
2021/01/24 11:55:44;;;;;;;4.93;2.70;;;3.10;69.90;;;;;;5052023;28;20205;-88
2021/01/24 11:58:10;;;;;;;2.80;2.57;;;3.10;67.80;;;;;;5032816;28;20313;-89
2021/01/24 12:00:36;;;;;;;4.70;3.00;;;3.10;66.80;;;;;;5041706;28;20649;-88
2021/01/24 12:03:01;;;;;;;3.10;2.80;;;3.20;66.90;;;;;;5043132;28;20251;-89
2021/01/24 12:05:27;;;;;;;3.00;2.60;;;3.20;66.20;;;;;;5040119;28;20186;-88
2021/01/24 12:07:53;;;;;;;4.27;2.50;;;3.20;66.40;;;;;;5033247;28;20189;-88
2021/01/24 12:10:18;;;;;;;2.83;2.50;;;3.30;63.90;;;;;;5030585;28;20200;-89
2021/01/24 12:12:44;;;;;;;4.30;2.80;;;3.30;64.30;;;;;;5041482;28;20193;-88
2021/01/24 12:15:10;;;;;;;4.30;2.63;;;3.30;66.50;;;;;;5026158;28;20296;-87
2021/01/24 12:17:35;;;;;;;3.43;3.03;;;3.40;64.90;;;;;;5031235;28;20215;-88
2021/01/24 12:20:01;;;;;;;2.40;2.20;;;3.40;66.30;;;;;;5042219;28;20564;-88
2021/01/24 12:22:27;;;;;;;2.70;2.50;;;3.40;64.50;;;;;;5041714;28;20251;-88
2021/01/24 12:24:53;;;;;;;3.40;2.53;;;3.40;65.70;;;;;;5031621;28;20239;-89
2021/01/24 12:27:18;;;;;;;3.30;3.00;;;3.40;65.50;;;;;;5040396;28;20192;-88
2021/01/24 12:29:44;;;;;;;3.33;3.00;;;3.30;68.70;;;;;;5026771;28;20224;-88
2021/01/24 12:32:10;;;;;;;2.97;2.67;;;3.30;67.50;;;;;;5028708;28;20182;-88
2021/01/24 12:34:35;;;;;;;3.23;2.70;;;3.30;68.30;;;;;;5046002;28;20212;-87
2021/01/24 12:37:01;;;;;;;4.40;2.87;;;3.30;68.20;;;;;;5038060;28;20713;-87
2021/01/24 12:39:27;;;;;;;4.27;2.80;;;3.20;70.00;;;;;;5052657;28;20192;-87
2021/01/24 12:41:52;;;;;;;2.70;2.50;;;3.30;69.20;;;;;;5022405;28;20245;-87
2021/01/24 12:44:18;;;;;;;4.40;2.60;;;3.20;67.50;;;;;;5035810;28;20217;-86
2021/01/24 12:46:45;;;;;;;3.97;2.47;;;3.10;68.80;;;;;;5043387;28;20200;-87
2021/01/24 12:49:10;;;;;;;3.37;3.00;;;3.20;67.50;;;;;;5030653;28;20552;-88
2021/01/24 12:51:36;;;;;;;2.97;2.30;;;3.20;66.90;;;;;;5043208;28;20216;-86
2021/01/24 12:54:02;;;;;;;4.00;2.73;;;3.20;66.50;;;;;;5042434;28;20220;-87
2021/01/24 12:56:27;;;;;;;2.80;2.57;;;3.20;65.60;;;;;;5043264;28;20273;-87
2021/01/24 12:58:53;;;;;;;2.97;2.47;;;3.20;66.20;;;;;;5042452;28;20200;-88
2021/01/24 13:01:19;;;;;;;3.23;2.93;;;3.30;66.20;;;;;;5042236;28;20268;-87